sensor_id;sensor_type;location;lat;lon;timestamp;temperature;humidity
774;DHT22;370;48.810;9.150;2023-04-28T00:00:07;11.60;3.20
774;DHT22;370;48.810;9.150;2023-04-28T00:02:34;11.70;3.50
774;DHT22;370;48.810;9.150;2023-04-28T00:05:01;11.80;3.60
774;DHT22;370;48.810;9.150;2023-04-28T00:07:29;11.80;2.40
774;DHT22;370;48.810;9.150;2023-04-28T00:09:56;11.90;1.90
774;DHT22;370;48.810;9.150;2023-04-28T00:12:23;11.90;2.90
774;DHT22;370;48.810;9.150;2023-04-28T00:14:50;12.00;3.20
774;DHT22;370;48.810;9.150;2023-04-28T00:17:16;12.10;3.80
774;DHT22;370;48.810;9.150;2023-04-28T00:19:43;12.10;2.80
774;DHT22;370;48.810;9.150;2023-04-28T00:22:10;12.10;2.80
774;DHT22;370;48.810;9.150;2023-04-28T00:24:38;12.20;3.60
774;DHT22;370;48.810;9.150;2023-04-28T00:27:06;12.30;4.20
774;DHT22;370;48.810;9.150;2023-04-28T00:29:33;12.10;3.30
774;DHT22;370;48.810;9.150;2023-04-28T00:31:59;12.10;1.00
774;DHT22;370;48.810;9.150;2023-04-28T00:34:26;12.00;1.00
774;DHT22;370;48.810;9.150;2023-04-28T00:36:54;11.90;1.00
774;DHT22;370;48.810;9.150;2023-04-28T00:39:21;11.90;1.10
774;DHT22;370;48.810;9.150;2023-04-28T00:41:49;12.00;2.30
774;DHT22;370;48.810;9.150;2023-04-28T00:44:16;12.00;1.00
774;DHT22;370;48.810;9.150;2023-04-28T00:46:43;12.00;1.00
774;DHT22;370;48.810;9.150;2023-04-28T00:49:10;12.10;1.30
774;DHT22;370;48.810;9.150;2023-04-28T00:51:37;12.10;1.30
774;DHT22;370;48.810;9.150;2023-04-28T00:54:05;12.20;1.30
774;DHT22;370;48.810;9.150;2023-04-28T00:56:33;12.30;1.30
774;DHT22;370;48.810;9.150;2023-04-28T00:59:04;12.40;1.70
774;DHT22;370;48.810;9.150;2023-04-28T01:01:31;12.40;2.10
774;DHT22;370;48.810;9.150;2023-04-28T01:03:58;12.30;3.10
774;DHT22;370;48.810;9.150;2023-04-28T01:06:26;12.30;3.70
774;DHT22;370;48.810;9.150;2023-04-28T01:08:54;12.30;2.60
774;DHT22;370;48.810;9.150;2023-04-28T01:11:21;12.30;2.00
774;DHT22;370;48.810;9.150;2023-04-28T01:13:48;12.30;1.30
774;DHT22;370;48.810;9.150;2023-04-28T01:16:16;12.20;1.20
774;DHT22;370;48.810;9.150;2023-04-28T01:18:46;12.00;2.20
774;DHT22;370;48.810;9.150;2023-04-28T01:21:13;12.00;2.60
774;DHT22;370;48.810;9.150;2023-04-28T01:23:40;12.00;2.40
774;DHT22;370;48.810;9.150;2023-04-28T01:26:08;11.90;3.00
774;DHT22;370;48.810;9.150;2023-04-28T01:28:34;12.00;2.20
774;DHT22;370;48.810;9.150;2023-04-28T01:31:01;12.10;2.20
774;DHT22;370;48.810;9.150;2023-04-28T01:33:28;12.20;1.50
774;DHT22;370;48.810;9.150;2023-04-28T01:35:56;12.40;1.60
774;DHT22;370;48.810;9.150;2023-04-28T01:38:23;12.40;2.20
774;DHT22;370;48.810;9.150;2023-04-28T01:40:50;12.40;3.10
774;DHT22;370;48.810;9.150;2023-04-28T01:43:18;12.50;3.20
774;DHT22;370;48.810;9.150;2023-04-28T01:45:45;12.50;2.90
774;DHT22;370;48.810;9.150;2023-04-28T01:48:12;12.60;2.50
774;DHT22;370;48.810;9.150;2023-04-28T01:50:38;12.60;2.90
774;DHT22;370;48.810;9.150;2023-04-28T01:53:05;12.70;3.30
774;DHT22;370;48.810;9.150;2023-04-28T01:55:32;12.60;3.60
774;DHT22;370;48.810;9.150;2023-04-28T01:57:59;12.60;4.50
774;DHT22;370;48.810;9.150;2023-04-28T02:00:27;12.60;3.20
774;DHT22;370;48.810;9.150;2023-04-28T02:02:54;12.60;2.90
774;DHT22;370;48.810;9.150;2023-04-28T02:05:20;12.50;2.60
774;DHT22;370;48.810;9.150;2023-04-28T02:07:47;12.50;2.90
774;DHT22;370;48.810;9.150;2023-04-28T02:10:14;12.50;3.10
774;DHT22;370;48.810;9.150;2023-04-28T02:12:41;12.60;4.10
774;DHT22;370;48.810;9.150;2023-04-28T02:15:08;12.70;3.70
774;DHT22;370;48.810;9.150;2023-04-28T02:17:36;12.70;4.10
774;DHT22;370;48.810;9.150;2023-04-28T02:20:04;12.80;3.60
774;DHT22;370;48.810;9.150;2023-04-28T02:22:31;12.80;3.60
774;DHT22;370;48.810;9.150;2023-04-28T02:24:58;12.90;2.50
774;DHT22;370;48.810;9.150;2023-04-28T02:27:25;12.90;3.30
774;DHT22;370;48.810;9.150;2023-04-28T02:29:52;12.80;1.00
774;DHT22;370;48.810;9.150;2023-04-28T02:32:19;12.90;2.70
774;DHT22;370;48.810;9.150;2023-04-28T02:34:52;12.80;1.40
774;DHT22;370;48.810;9.150;2023-04-28T02:37:18;12.80;1.70
774;DHT22;370;48.810;9.150;2023-04-28T02:39:45;12.70;2.00
774;DHT22;370;48.810;9.150;2023-04-28T02:42:12;12.80;2.40
774;DHT22;370;48.810;9.150;2023-04-28T02:44:39;12.90;2.50
774;DHT22;370;48.810;9.150;2023-04-28T02:47:06;13.00;2.30
774;DHT22;370;48.810;9.150;2023-04-28T02:49:32;13.10;2.70
774;DHT22;370;48.810;9.150;2023-04-28T02:52:01;13.10;2.20
774;DHT22;370;48.810;9.150;2023-04-28T02:54:27;13.10;1.70
774;DHT22;370;48.810;9.150;2023-04-28T02:56:55;13.10;2.20
774;DHT22;370;48.810;9.150;2023-04-28T02:59:23;13.20;2.40
774;DHT22;370;48.810;9.150;2023-04-28T03:01:50;13.20;2.70
774;DHT22;370;48.810;9.150;2023-04-28T03:04:17;13.30;3.60
774;DHT22;370;48.810;9.150;2023-04-28T03:06:44;13.30;3.60
774;DHT22;370;48.810;9.150;2023-04-28T03:09:13;13.30;1.10
774;DHT22;370;48.810;9.150;2023-04-28T03:11:40;13.30;1.10
774;DHT22;370;48.810;9.150;2023-04-28T03:14:06;13.30;2.60
774;DHT22;370;48.810;9.150;2023-04-28T03:16:33;13.30;3.00
774;DHT22;370;48.810;9.150;2023-04-28T03:19:00;13.10;4.90
774;DHT22;370;48.810;9.150;2023-04-28T03:21:27;13.00;4.70
774;DHT22;370;48.810;9.150;2023-04-28T03:23:54;13.00;4.90
774;DHT22;370;48.810;9.150;2023-04-28T03:26:22;13.20;4.60
774;DHT22;370;48.810;9.150;2023-04-28T03:28:49;13.20;4.30
774;DHT22;370;48.810;9.150;2023-04-28T03:31:16;13.30;4.20
774;DHT22;370;48.810;9.150;2023-04-28T03:33:43;13.30;5.00
774;DHT22;370;48.810;9.150;2023-04-28T03:36:11;13.30;5.50
774;DHT22;370;48.810;9.150;2023-04-28T03:38:38;13.30;5.80
774;DHT22;370;48.810;9.150;2023-04-28T03:41:05;13.30;5.80
774;DHT22;370;48.810;9.150;2023-04-28T03:43:33;13.30;6.20
774;DHT22;370;48.810;9.150;2023-04-28T03:46:02;13.30;7.30
774;DHT22;370;48.810;9.150;2023-04-28T03:48:29;13.30;8.10
774;DHT22;370;48.810;9.150;2023-04-28T03:50:56;13.20;9.10
774;DHT22;370;48.810;9.150;2023-04-28T03:53:22;13.20;7.20
774;DHT22;370;48.810;9.150;2023-04-28T03:55:49;12.90;8.20
774;DHT22;370;48.810;9.150;2023-04-28T03:58:16;12.90;8.60
774;DHT22;370;48.810;9.150;2023-04-28T04:00:44;13.00;7.80
774;DHT22;370;48.810;9.150;2023-04-28T04:03:11;12.80;8.10
774;DHT22;370;48.810;9.150;2023-04-28T04:05:39;12.80;8.40
774;DHT22;370;48.810;9.150;2023-04-28T04:08:06;13.00;9.90
774;DHT22;370;48.810;9.150;2023-04-28T04:10:33;13.00;10.10
774;DHT22;370;48.810;9.150;2023-04-28T04:13:00;13.00;11.70
774;DHT22;370;48.810;9.150;2023-04-28T04:15:27;13.20;12.60
774;DHT22;370;48.810;9.150;2023-04-28T04:17:55;13.10;12.10
774;DHT22;370;48.810;9.150;2023-04-28T04:20:22;13.20;12.50
774;DHT22;370;48.810;9.150;2023-04-28T04:22:49;13.20;13.20
774;DHT22;370;48.810;9.150;2023-04-28T04:25:15;13.20;12.90
774;DHT22;370;48.810;9.150;2023-04-28T04:27:42;13.10;13.10
774;DHT22;370;48.810;9.150;2023-04-28T04:30:09;13.20;14.00
774;DHT22;370;48.810;9.150;2023-04-28T04:32:36;13.20;14.50
774;DHT22;370;48.810;9.150;2023-04-28T04:35:05;13.20;15.00
774;DHT22;370;48.810;9.150;2023-04-28T04:37:32;13.30;14.60
774;DHT22;370;48.810;9.150;2023-04-28T04:39:59;13.30;13.40
774;DHT22;370;48.810;9.150;2023-04-28T04:42:26;13.30;12.30
774;DHT22;370;48.810;9.150;2023-04-28T04:44:53;13.30;12.10
774;DHT22;370;48.810;9.150;2023-04-28T04:47:20;13.30;12.40
774;DHT22;370;48.810;9.150;2023-04-28T04:49:47;13.00;12.80
774;DHT22;370;48.810;9.150;2023-04-28T04:52:15;13.10;13.40
774;DHT22;370;48.810;9.150;2023-04-28T04:54:42;13.10;14.00
774;DHT22;370;48.810;9.150;2023-04-28T04:57:09;13.20;14.50
774;DHT22;370;48.810;9.150;2023-04-28T04:59:36;13.20;16.00
774;DHT22;370;48.810;9.150;2023-04-28T05:02:03;13.20;16.00
774;DHT22;370;48.810;9.150;2023-04-28T05:04:30;13.20;16.00
774;DHT22;370;48.810;9.150;2023-04-28T05:06:57;13.10;15.90
774;DHT22;370;48.810;9.150;2023-04-28T05:09:25;13.10;15.90
774;DHT22;370;48.810;9.150;2023-04-28T05:11:52;12.90;17.70
774;DHT22;370;48.810;9.150;2023-04-28T05:14:18;12.90;18.80
774;DHT22;370;48.810;9.150;2023-04-28T05:16:45;13.00;18.60
774;DHT22;370;48.810;9.150;2023-04-28T05:19:12;13.10;16.90
774;DHT22;370;48.810;9.150;2023-04-28T05:21:39;13.10;17.70
774;DHT22;370;48.810;9.150;2023-04-28T05:24:06;13.10;19.80
774;DHT22;370;48.810;9.150;2023-04-28T05:26:34;13.00;23.90
774;DHT22;370;48.810;9.150;2023-04-28T05:29:02;13.00;23.90
774;DHT22;370;48.810;9.150;2023-04-28T05:31:30;12.90;22.50
774;DHT22;370;48.810;9.150;2023-04-28T05:33:56;12.90;24.20
774;DHT22;370;48.810;9.150;2023-04-28T05:36:23;12.80;24.20
774;DHT22;370;48.810;9.150;2023-04-28T05:38:51;12.60;26.40
774;DHT22;370;48.810;9.150;2023-04-28T05:41:18;12.50;29.40
774;DHT22;370;48.810;9.150;2023-04-28T05:43:46;12.40;29.90
774;DHT22;370;48.810;9.150;2023-04-28T05:46:15;12.30;32.50
774;DHT22;370;48.810;9.150;2023-04-28T05:48:42;12.30;35.50
774;DHT22;370;48.810;9.150;2023-04-28T05:51:09;12.20;36.40
774;DHT22;370;48.810;9.150;2023-04-28T05:53:36;12.20;36.30
774;DHT22;370;48.810;9.150;2023-04-28T05:56:03;12.30;37.70
774;DHT22;370;48.810;9.150;2023-04-28T05:58:30;12.30;39.90
774;DHT22;370;48.810;9.150;2023-04-28T06:00:59;12.30;41.70
774;DHT22;370;48.810;9.150;2023-04-28T06:03:25;12.30;42.80
774;DHT22;370;48.810;9.150;2023-04-28T06:05:52;12.30;42.70
774;DHT22;370;48.810;9.150;2023-04-28T06:08:19;12.30;43.90
774;DHT22;370;48.810;9.150;2023-04-28T06:10:46;12.30;45.30
774;DHT22;370;48.810;9.150;2023-04-28T06:13:12;12.30;46.90
774;DHT22;370;48.810;9.150;2023-04-28T06:15:39;12.30;47.70
774;DHT22;370;48.810;9.150;2023-04-28T06:18:07;12.30;47.30
774;DHT22;370;48.810;9.150;2023-04-28T06:20:34;12.40;44.90
774;DHT22;370;48.810;9.150;2023-04-28T06:23:01;12.40;43.90
774;DHT22;370;48.810;9.150;2023-04-28T06:25:28;12.50;43.40
774;DHT22;370;48.810;9.150;2023-04-28T06:27:55;12.50;44.10
774;DHT22;370;48.810;9.150;2023-04-28T06:30:24;12.50;42.90
774;DHT22;370;48.810;9.150;2023-04-28T06:32:50;12.50;44.70
774;DHT22;370;48.810;9.150;2023-04-28T06:35:19;12.50;45.40
774;DHT22;370;48.810;9.150;2023-04-28T06:37:45;12.50;47.40
774;DHT22;370;48.810;9.150;2023-04-28T06:40:12;12.60;48.80
774;DHT22;370;48.810;9.150;2023-04-28T06:42:39;12.60;48.70
774;DHT22;370;48.810;9.150;2023-04-28T06:45:07;12.60;48.40
774;DHT22;370;48.810;9.150;2023-04-28T06:47:34;12.70;47.20
774;DHT22;370;48.810;9.150;2023-04-28T06:50:01;12.70;46.80
774;DHT22;370;48.810;9.150;2023-04-28T06:52:29;12.80;47.30
774;DHT22;370;48.810;9.150;2023-04-28T06:54:56;12.90;47.00
774;DHT22;370;48.810;9.150;2023-04-28T06:57:23;12.90;42.50
774;DHT22;370;48.810;9.150;2023-04-28T06:59:50;13.10;42.90
774;DHT22;370;48.810;9.150;2023-04-28T07:02:17;13.20;41.60
774;DHT22;370;48.810;9.150;2023-04-28T07:04:44;13.40;37.30
774;DHT22;370;48.810;9.150;2023-04-28T07:07:10;13.30;37.80
774;DHT22;370;48.810;9.150;2023-04-28T07:09:39;13.50;36.50
774;DHT22;370;48.810;9.150;2023-04-28T07:12:06;13.70;35.30
774;DHT22;370;48.810;9.150;2023-04-28T07:14:33;13.80;32.60
774;DHT22;370;48.810;9.150;2023-04-28T07:16:59;14.00;32.00
774;DHT22;370;48.810;9.150;2023-04-28T07:19:27;14.00;28.80
774;DHT22;370;48.810;9.150;2023-04-28T07:21:53;14.00;27.70
774;DHT22;370;48.810;9.150;2023-04-28T07:24:20;14.10;28.80
774;DHT22;370;48.810;9.150;2023-04-28T07:26:49;14.00;27.70
774;DHT22;370;48.810;9.150;2023-04-28T07:29:16;14.20;27.70
774;DHT22;370;48.810;9.150;2023-04-28T07:31:43;14.20;26.60
774;DHT22;370;48.810;9.150;2023-04-28T07:34:10;14.10;27.50
774;DHT22;370;48.810;9.150;2023-04-28T07:36:37;14.10;29.70
774;DHT22;370;48.810;9.150;2023-04-28T07:39:04;14.10;28.00
774;DHT22;370;48.810;9.150;2023-04-28T07:41:35;14.10;28.40
774;DHT22;370;48.810;9.150;2023-04-28T07:44:03;14.20;29.10
774;DHT22;370;48.810;9.150;2023-04-28T07:46:31;14.30;31.20
774;DHT22;370;48.810;9.150;2023-04-28T07:48:58;14.40;32.20
774;DHT22;370;48.810;9.150;2023-04-28T07:51:25;14.50;37.60
774;DHT22;370;48.810;9.150;2023-04-28T07:53:51;14.50;36.10
774;DHT22;370;48.810;9.150;2023-04-28T07:56:18;14.40;37.50
774;DHT22;370;48.810;9.150;2023-04-28T07:58:46;14.40;40.00
774;DHT22;370;48.810;9.150;2023-04-28T08:01:14;14.30;39.00
774;DHT22;370;48.810;9.150;2023-04-28T08:03:41;14.20;42.60
774;DHT22;370;48.810;9.150;2023-04-28T08:06:08;14.20;47.10
774;DHT22;370;48.810;9.150;2023-04-28T08:08:35;14.20;49.60
774;DHT22;370;48.810;9.150;2023-04-28T08:11:01;14.10;53.70
774;DHT22;370;48.810;9.150;2023-04-28T08:13:28;14.10;57.00
774;DHT22;370;48.810;9.150;2023-04-28T08:15:55;14.20;57.90
774;DHT22;370;48.810;9.150;2023-04-28T08:18:24;14.20;59.80
774;DHT22;370;48.810;9.150;2023-04-28T08:20:51;14.20;60.40
774;DHT22;370;48.810;9.150;2023-04-28T08:23:17;14.10;58.50
774;DHT22;370;48.810;9.150;2023-04-28T08:25:45;14.00;55.50
774;DHT22;370;48.810;9.150;2023-04-28T08:28:12;13.80;56.30
774;DHT22;370;48.810;9.150;2023-04-28T08:30:39;13.70;56.60
774;DHT22;370;48.810;9.150;2023-04-28T08:33:06;13.50;58.00
774;DHT22;370;48.810;9.150;2023-04-28T08:35:34;13.40;58.60
774;DHT22;370;48.810;9.150;2023-04-28T08:38:01;13.40;60.80
774;DHT22;370;48.810;9.150;2023-04-28T08:40:28;13.50;61.80
774;DHT22;370;48.810;9.150;2023-04-28T08:42:56;13.50;61.70
774;DHT22;370;48.810;9.150;2023-04-28T08:45:23;13.60;61.40
774;DHT22;370;48.810;9.150;2023-04-28T08:47:50;13.70;62.90
774;DHT22;370;48.810;9.150;2023-04-28T08:50:20;13.90;66.50
774;DHT22;370;48.810;9.150;2023-04-28T08:52:51;14.00;65.30
774;DHT22;370;48.810;9.150;2023-04-28T08:55:18;14.20;66.60
774;DHT22;370;48.810;9.150;2023-04-28T08:57:47;14.30;64.30
774;DHT22;370;48.810;9.150;2023-04-28T09:00:16;14.20;61.00
774;DHT22;370;48.810;9.150;2023-04-28T09:02:43;14.10;61.90
774;DHT22;370;48.810;9.150;2023-04-28T09:05:11;14.40;64.40
774;DHT22;370;48.810;9.150;2023-04-28T09:07:38;14.40;64.50
774;DHT22;370;48.810;9.150;2023-04-28T09:10:18;14.40;61.80
774;DHT22;370;48.810;9.150;2023-04-28T09:12:45;14.20;60.70
774;DHT22;370;48.810;9.150;2023-04-28T09:15:25;14.40;61.50
774;DHT22;370;48.810;9.150;2023-04-28T09:17:52;14.20;61.90
774;DHT22;370;48.810;9.150;2023-04-28T09:20:20;14.30;64.00
774;DHT22;370;48.810;9.150;2023-04-28T09:22:49;14.30;64.30
774;DHT22;370;48.810;9.150;2023-04-28T09:25:18;14.20;62.50
774;DHT22;370;48.810;9.150;2023-04-28T09:27:46;14.10;63.40
774;DHT22;370;48.810;9.150;2023-04-28T09:30:13;14.10;64.10
774;DHT22;370;48.810;9.150;2023-04-28T09:32:40;14.20;67.30
774;DHT22;370;48.810;9.150;2023-04-28T09:35:07;14.40;67.30
774;DHT22;370;48.810;9.150;2023-04-28T09:37:34;14.50;68.20
774;DHT22;370;48.810;9.150;2023-04-28T09:40:06;14.90;70.40
774;DHT22;370;48.810;9.150;2023-04-28T09:42:36;15.10;68.90
774;DHT22;370;48.810;9.150;2023-04-28T09:45:04;15.30;68.30
774;DHT22;370;48.810;9.150;2023-04-28T09:47:33;15.90;68.90
774;DHT22;370;48.810;9.150;2023-04-28T09:50:02;16.30;65.50
774;DHT22;370;48.810;9.150;2023-04-28T09:52:29;16.50;58.70
774;DHT22;370;48.810;9.150;2023-04-28T09:54:56;16.60;55.10
774;DHT22;370;48.810;9.150;2023-04-28T09:57:24;16.50;55.30
774;DHT22;370;48.810;9.150;2023-04-28T09:59:52;16.60;58.20
774;DHT22;370;48.810;9.150;2023-04-28T10:02:21;17.00;55.00
774;DHT22;370;48.810;9.150;2023-04-28T10:04:48;17.70;55.70
774;DHT22;370;48.810;9.150;2023-04-28T10:07:17;18.20;52.70
774;DHT22;370;48.810;9.150;2023-04-28T10:09:45;19.20;50.60
774;DHT22;370;48.810;9.150;2023-04-28T10:12:15;19.20;36.10
774;DHT22;370;48.810;9.150;2023-04-28T10:14:42;19.20;33.30
774;DHT22;370;48.810;9.150;2023-04-28T10:17:12;19.40;28.70
774;DHT22;370;48.810;9.150;2023-04-28T10:19:40;19.60;29.80
774;DHT22;370;48.810;9.150;2023-04-28T10:22:28;19.40;27.00
774;DHT22;370;48.810;9.150;2023-04-28T10:25:19;19.40;23.90
774;DHT22;370;48.810;9.150;2023-04-28T10:27:50;19.70;21.50
774;DHT22;370;48.810;9.150;2023-04-28T10:30:19;20.10;21.60
774;DHT22;370;48.810;9.150;2023-04-28T10:33:25;21.00;22.70
774;DHT22;370;48.810;9.150;2023-04-28T10:35:51;21.80;13.10
774;DHT22;370;48.810;9.150;2023-04-28T10:38:19;21.90;13.10
774;DHT22;370;48.810;9.150;2023-04-28T10:40:46;21.70;10.10
774;DHT22;370;48.810;9.150;2023-04-28T10:43:32;21.50;10.50
774;DHT22;370;48.810;9.150;2023-04-28T10:46:03;21.40;10.90
774;DHT22;370;48.810;9.150;2023-04-28T10:48:59;21.30;8.40
774;DHT22;370;48.810;9.150;2023-04-28T10:51:32;21.20;12.60
774;DHT22;370;48.810;9.150;2023-04-28T10:54:18;21.20;11.40
774;DHT22;370;48.810;9.150;2023-04-28T10:57:16;21.40;7.20
774;DHT22;370;48.810;9.150;2023-04-28T10:59:43;21.30;5.40
774;DHT22;370;48.810;9.150;2023-04-28T11:02:35;21.10;4.10
774;DHT22;370;48.810;9.150;2023-04-28T11:05:12;21.00;4.60
774;DHT22;370;48.810;9.150;2023-04-28T11:07:38;21.10;5.40
774;DHT22;370;48.810;9.150;2023-04-28T11:10:06;21.40;3.70
774;DHT22;370;48.810;9.150;2023-04-28T11:12:33;21.60;3.80
774;DHT22;370;48.810;9.150;2023-04-28T11:15:11;22.10;1.10
774;DHT22;370;48.810;9.150;2023-04-28T11:17:39;22.30;1.00
774;DHT22;370;48.810;9.150;2023-04-28T11:20:12;22.10;1.00
774;DHT22;370;48.810;9.150;2023-04-28T11:22:40;21.90;1.00
774;DHT22;370;48.810;9.150;2023-04-28T11:28:29;21.90;1.00
774;DHT22;370;48.810;9.150;2023-04-28T11:31:09;22.30;1.00
774;DHT22;370;48.810;9.150;2023-04-28T11:33:37;22.70;1.00
774;DHT22;370;48.810;9.150;2023-04-28T11:36:05;23.10;1.00
774;DHT22;370;48.810;9.150;2023-04-28T11:38:42;23.00;1.00
774;DHT22;370;48.810;9.150;2023-04-28T11:41:09;22.90;1.00
774;DHT22;370;48.810;9.150;2023-04-28T11:43:35;22.90;1.00
774;DHT22;370;48.810;9.150;2023-04-28T11:46:02;22.90;1.00
774;DHT22;370;48.810;9.150;2023-04-28T11:48:29;22.90;1.00
774;DHT22;370;48.810;9.150;2023-04-28T11:50:56;23.20;1.00
774;DHT22;370;48.810;9.150;2023-04-28T11:53:42;23.90;1.00
774;DHT22;370;48.810;9.150;2023-04-28T11:56:10;24.10;1.00
774;DHT22;370;48.810;9.150;2023-04-28T11:58:37;24.00;1.00
774;DHT22;370;48.810;9.150;2023-04-28T12:01:08;24.30;1.00
774;DHT22;370;48.810;9.150;2023-04-28T12:03:42;24.40;1.00
774;DHT22;370;48.810;9.150;2023-04-28T12:06:09;24.00;1.00
774;DHT22;370;48.810;9.150;2023-04-28T12:08:36;23.60;1.00
774;DHT22;370;48.810;9.150;2023-04-28T12:11:11;23.30;1.00
774;DHT22;370;48.810;9.150;2023-04-28T12:13:38;23.30;1.00
774;DHT22;370;48.810;9.150;2023-04-28T12:16:06;23.20;1.00
774;DHT22;370;48.810;9.150;2023-04-28T12:18:34;23.10;1.00
774;DHT22;370;48.810;9.150;2023-04-28T12:21:01;23.10;1.00
774;DHT22;370;48.810;9.150;2023-04-28T12:23:29;23.10;1.00
774;DHT22;370;48.810;9.150;2023-04-28T12:25:57;23.10;1.00
774;DHT22;370;48.810;9.150;2023-04-28T12:28:35;23.20;1.00
774;DHT22;370;48.810;9.150;2023-04-28T12:31:03;23.20;1.00
774;DHT22;370;48.810;9.150;2023-04-28T12:33:30;22.90;1.00
774;DHT22;370;48.810;9.150;2023-04-28T12:36:02;22.70;1.00
774;DHT22;370;48.810;9.150;2023-04-28T12:38:30;22.50;1.00
774;DHT22;370;48.810;9.150;2023-04-28T12:40:57;22.20;1.00
774;DHT22;370;48.810;9.150;2023-04-28T12:43:26;21.80;1.00
774;DHT22;370;48.810;9.150;2023-04-28T12:45:54;21.50;1.00
774;DHT22;370;48.810;9.150;2023-04-28T12:48:21;20.90;2.80
774;DHT22;370;48.810;9.150;2023-04-28T12:50:49;20.70;5.60
774;DHT22;370;48.810;9.150;2023-04-28T12:53:16;20.20;9.80
774;DHT22;370;48.810;9.150;2023-04-28T12:55:43;19.80;11.70
774;DHT22;370;48.810;9.150;2023-04-28T12:58:09;19.50;12.30
774;DHT22;370;48.810;9.150;2023-04-28T13:00:37;19.60;12.60
774;DHT22;370;48.810;9.150;2023-04-28T13:03:06;19.90;12.20
774;DHT22;370;48.810;9.150;2023-04-28T13:05:32;20.20;11.50
774;DHT22;370;48.810;9.150;2023-04-28T13:07:59;20.50;9.50
774;DHT22;370;48.810;9.150;2023-04-28T13:10:26;20.70;6.90
774;DHT22;370;48.810;9.150;2023-04-28T13:12:54;21.00;6.90
774;DHT22;370;48.810;9.150;2023-04-28T13:15:20;21.00;4.80
774;DHT22;370;48.810;9.150;2023-04-28T13:17:49;21.40;3.70
774;DHT22;370;48.810;9.150;2023-04-28T13:20:16;21.70;3.90
774;DHT22;370;48.810;9.150;2023-04-28T13:22:42;22.00;4.10
774;DHT22;370;48.810;9.150;2023-04-28T13:25:09;22.20;2.10
774;DHT22;370;48.810;9.150;2023-04-28T13:27:36;22.60;1.00
774;DHT22;370;48.810;9.150;2023-04-28T13:30:03;23.00;1.00
774;DHT22;370;48.810;9.150;2023-04-28T13:32:30;23.20;1.00
774;DHT22;370;48.810;9.150;2023-04-28T13:34:59;23.30;1.00
774;DHT22;370;48.810;9.150;2023-04-28T13:37:26;23.40;1.00
774;DHT22;370;48.810;9.150;2023-04-28T13:39:52;23.40;1.00
774;DHT22;370;48.810;9.150;2023-04-28T13:42:19;23.20;1.00
774;DHT22;370;48.810;9.150;2023-04-28T13:44:46;23.00;1.00
774;DHT22;370;48.810;9.150;2023-04-28T13:47:13;22.80;1.00
774;DHT22;370;48.810;9.150;2023-04-28T13:49:40;22.00;1.00
774;DHT22;370;48.810;9.150;2023-04-28T13:52:09;21.70;1.00
774;DHT22;370;48.810;9.150;2023-04-28T13:54:35;21.20;1.30
774;DHT22;370;48.810;9.150;2023-04-28T13:57:02;21.00;2.90
774;DHT22;370;48.810;9.150;2023-04-28T13:59:29;20.90;5.00
774;DHT22;370;48.810;9.150;2023-04-28T14:01:56;20.70;6.30
774;DHT22;370;48.810;9.150;2023-04-28T14:04:23;20.40;8.40
774;DHT22;370;48.810;9.150;2023-04-28T14:06:50;19.60;14.60
774;DHT22;370;48.810;9.150;2023-04-28T14:09:18;19.10;20.00
774;DHT22;370;48.810;9.150;2023-04-28T14:11:45;19.00;22.80
774;DHT22;370;48.810;9.150;2023-04-28T14:14:12;18.60;24.00
774;DHT22;370;48.810;9.150;2023-04-28T14:16:39;18.40;28.00
774;DHT22;370;48.810;9.150;2023-04-28T14:19:06;18.00;29.60
774;DHT22;370;48.810;9.150;2023-04-28T14:21:33;17.90;37.40
774;DHT22;370;48.810;9.150;2023-04-28T14:24:00;17.70;37.90
774;DHT22;370;48.810;9.150;2023-04-28T14:26:28;17.50;40.30
774;DHT22;370;48.810;9.150;2023-04-28T14:28:55;17.20;42.00
774;DHT22;370;48.810;9.150;2023-04-28T14:31:22;17.10;44.60
774;DHT22;370;48.810;9.150;2023-04-28T14:33:49;17.10;48.90
774;DHT22;370;48.810;9.150;2023-04-28T14:36:16;17.20;52.10
774;DHT22;370;48.810;9.150;2023-04-28T14:38:42;17.30;55.50
774;DHT22;370;48.810;9.150;2023-04-28T14:41:09;17.70;57.80
774;DHT22;370;48.810;9.150;2023-04-28T14:43:38;17.90;55.50
774;DHT22;370;48.810;9.150;2023-04-28T14:46:05;18.20;54.60
774;DHT22;370;48.810;9.150;2023-04-28T14:48:32;18.30;46.40
774;DHT22;370;48.810;9.150;2023-04-28T14:51:00;18.40;44.60
774;DHT22;370;48.810;9.150;2023-04-28T14:53:27;18.50;36.70
774;DHT22;370;48.810;9.150;2023-04-28T14:55:54;18.70;41.70
774;DHT22;370;48.810;9.150;2023-04-28T14:58:23;19.00;40.80
774;DHT22;370;48.810;9.150;2023-04-28T15:00:51;19.20;38.60
774;DHT22;370;48.810;9.150;2023-04-28T15:03:18;19.20;35.30
774;DHT22;370;48.810;9.150;2023-04-28T15:05:45;19.20;27.50
774;DHT22;370;48.810;9.150;2023-04-28T15:08:12;19.00;24.50
774;DHT22;370;48.810;9.150;2023-04-28T15:10:39;18.80;24.90
774;DHT22;370;48.810;9.150;2023-04-28T15:13:06;18.60;25.30
774;DHT22;370;48.810;9.150;2023-04-28T15:15:33;18.50;26.60
774;DHT22;370;48.810;9.150;2023-04-28T15:18:02;18.50;23.60
774;DHT22;370;48.810;9.150;2023-04-28T15:20:29;18.40;23.70
774;DHT22;370;48.810;9.150;2023-04-28T15:22:57;18.20;27.30
774;DHT22;370;48.810;9.150;2023-04-28T15:25:25;18.30;27.90
774;DHT22;370;48.810;9.150;2023-04-28T15:27:52;18.70;24.70
774;DHT22;370;48.810;9.150;2023-04-28T15:30:19;19.00;19.90
774;DHT22;370;48.810;9.150;2023-04-28T15:32:47;19.20;20.10
774;DHT22;370;48.810;9.150;2023-04-28T15:35:16;19.20;18.40
774;DHT22;370;48.810;9.150;2023-04-28T15:37:44;19.10;19.20
774;DHT22;370;48.810;9.150;2023-04-28T15:40:13;19.10;18.60
774;DHT22;370;48.810;9.150;2023-04-28T15:42:41;18.90;19.90
774;DHT22;370;48.810;9.150;2023-04-28T15:45:13;18.50;19.60
774;DHT22;370;48.810;9.150;2023-04-28T15:47:40;18.20;22.10
774;DHT22;370;48.810;9.150;2023-04-28T15:50:08;18.10;23.70
774;DHT22;370;48.810;9.150;2023-04-28T15:52:38;18.00;23.80
774;DHT22;370;48.810;9.150;2023-04-28T15:55:10;17.70;25.80
774;DHT22;370;48.810;9.150;2023-04-28T15:57:38;17.60;27.40
774;DHT22;370;48.810;9.150;2023-04-28T16:00:06;17.60;27.40
774;DHT22;370;48.810;9.150;2023-04-28T16:02:34;17.50;28.40
774;DHT22;370;48.810;9.150;2023-04-28T16:05:01;17.60;28.50
774;DHT22;370;48.810;9.150;2023-04-28T16:07:29;17.60;27.50
774;DHT22;370;48.810;9.150;2023-04-28T16:10:04;17.60;27.70
774;DHT22;370;48.810;9.150;2023-04-28T16:12:30;17.50;29.40
774;DHT22;370;48.810;9.150;2023-04-28T16:14:58;17.40;32.20
774;DHT22;370;48.810;9.150;2023-04-28T16:17:25;17.30;35.10
774;DHT22;370;48.810;9.150;2023-04-28T16:19:53;17.20;36.80
774;DHT22;370;48.810;9.150;2023-04-28T16:22:20;17.00;36.90
774;DHT22;370;48.810;9.150;2023-04-28T16:24:47;16.80;44.20
774;DHT22;370;48.810;9.150;2023-04-28T16:27:15;16.60;50.10
774;DHT22;370;48.810;9.150;2023-04-28T16:29:42;16.40;52.90
774;DHT22;370;48.810;9.150;2023-04-28T16:32:10;16.20;57.90
774;DHT22;370;48.810;9.150;2023-04-28T16:34:37;16.10;60.20
774;DHT22;370;48.810;9.150;2023-04-28T16:37:04;16.00;61.40
774;DHT22;370;48.810;9.150;2023-04-28T16:39:32;15.90;65.20
774;DHT22;370;48.810;9.150;2023-04-28T16:41:59;15.80;64.30
774;DHT22;370;48.810;9.150;2023-04-28T16:44:28;15.70;65.70
774;DHT22;370;48.810;9.150;2023-04-28T16:46:56;15.70;69.60
774;DHT22;370;48.810;9.150;2023-04-28T16:49:23;15.80;70.30